sensor_id;sensor_type;location;lat;lon;timestamp;P1;durP1;ratioP1;P2;durP2;ratioP2
18748;SDS011;9503;53.560;10.246;2022-09-09T00:01:49;80.60;;;30.00;;
18748;SDS011;9503;53.560;10.246;2022-09-09T00:04:24;242.47;;;33.80;;
18748;SDS011;9503;53.560;10.246;2022-09-09T00:06:55;178.07;;;30.87;;
18748;SDS011;9503;53.560;10.246;2022-09-09T00:09:29;64.40;;;25.27;;
18748;SDS011;9503;53.560;10.246;2022-09-09T00:11:58;61.50;;;25.92;;
18748;SDS011;9503;53.560;10.246;2022-09-09T00:14:31;145.13;;;29.90;;
18748;SDS011;9503;53.560;10.246;2022-09-09T00:17:04;173.57;;;29.80;;
18748;SDS011;9503;53.560;10.246;2022-09-09T00:19:37;153.03;;;29.67;;
18748;SDS011;9503;53.560;10.246;2022-09-09T00:22:14;84.73;;;26.40;;
18748;SDS011;9503;53.560;10.246;2022-09-09T00:24:45;79.22;;;25.50;;
18748;SDS011;9503;53.560;10.246;2022-09-09T00:27:16;106.13;;;27.10;;
18748;SDS011;9503;53.560;10.246;2022-09-09T00:29:51;199.77;;;30.53;;
18748;SDS011;9503;53.560;10.246;2022-09-09T00:32:20;195.07;;;31.77;;
18748;SDS011;9503;53.560;10.246;2022-09-09T00:34:48;89.50;;;26.03;;
18748;SDS011;9503;53.560;10.246;2022-09-09T00:37:18;115.03;;;26.80;;
18748;SDS011;9503;53.560;10.246;2022-09-09T00:39:48;140.07;;;30.13;;
18748;SDS011;9503;53.560;10.246;2022-09-09T00:42:17;90.97;;;24.07;;
18748;SDS011;9503;53.560;10.246;2022-09-09T00:44:53;131.97;;;27.73;;
18748;SDS011;9503;53.560;10.246;2022-09-09T00:47:32;70.47;;;23.63;;
18748;SDS011;9503;53.560;10.246;2022-09-09T00:50:10;101.53;;;23.63;;
18748;SDS011;9503;53.560;10.246;2022-09-09T00:52:44;86.50;;;25.70;;
18748;SDS011;9503;53.560;10.246;2022-09-09T00:55:23;83.93;;;23.93;;
18748;SDS011;9503;53.560;10.246;2022-09-09T00:57:58;76.73;;;26.13;;
18748;SDS011;9503;53.560;10.246;2022-09-09T01:00:26;146.87;;;26.87;;
18748;SDS011;9503;53.560;10.246;2022-09-09T01:02:58;84.13;;;25.07;;
18748;SDS011;9503;53.560;10.246;2022-09-09T01:05:39;63.50;;;23.23;;
18748;SDS011;9503;53.560;10.246;2022-09-09T01:08:15;78.37;;;23.20;;
18748;SDS011;9503;53.560;10.246;2022-09-09T01:10:54;40.37;;;20.80;;
18748;SDS011;9503;53.560;10.246;2022-09-09T01:13:24;69.50;;;22.90;;
18748;SDS011;9503;53.560;10.246;2022-09-09T01:15:55;64.53;;;23.60;;
18748;SDS011;9503;53.560;10.246;2022-09-09T01:18:26;73.30;;;23.97;;
18748;SDS011;9503;53.560;10.246;2022-09-09T01:20:55;59.10;;;24.07;;
18748;SDS011;9503;53.560;10.246;2022-09-09T01:23:36;79.70;;;25.07;;
18748;SDS011;9503;53.560;10.246;2022-09-09T01:26:17;112.67;;;27.53;;
18748;SDS011;9503;53.560;10.246;2022-09-09T01:28:47;71.50;;;25.43;;
18748;SDS011;9503;53.560;10.246;2022-09-09T01:31:18;56.17;;;24.33;;
18748;SDS011;9503;53.560;10.246;2022-09-09T01:33:47;106.37;;;29.17;;
18748;SDS011;9503;53.560;10.246;2022-09-09T01:36:16;91.03;;;26.53;;
18748;SDS011;9503;53.560;10.246;2022-09-09T01:38:47;86.07;;;28.45;;
18748;SDS011;9503;53.560;10.246;2022-09-09T01:41:14;74.20;;;27.40;;
18748;SDS011;9503;53.560;10.246;2022-09-09T01:43:42;66.73;;;25.37;;
18748;SDS011;9503;53.560;10.246;2022-09-09T01:46:09;58.33;;;24.93;;
18748;SDS011;9503;53.560;10.246;2022-09-09T01:48:38;57.63;;;25.45;;
18748;SDS011;9503;53.560;10.246;2022-09-09T01:51:07;53.63;;;24.57;;
18748;SDS011;9503;53.560;10.246;2022-09-09T01:53:33;72.67;;;27.77;;
18748;SDS011;9503;53.560;10.246;2022-09-09T01:56:07;77.87;;;28.53;;
18748;SDS011;9503;53.560;10.246;2022-09-09T01:58:44;72.63;;;27.57;;
18748;SDS011;9503;53.560;10.246;2022-09-09T02:01:24;58.50;;;25.87;;
18748;SDS011;9503;53.560;10.246;2022-09-09T02:04:00;73.40;;;27.17;;
18748;SDS011;9503;53.560;10.246;2022-09-09T02:06:34;59.83;;;26.13;;
18748;SDS011;9503;53.560;10.246;2022-09-09T02:09:03;76.63;;;27.93;;
18748;SDS011;9503;53.560;10.246;2022-09-09T02:11:31;86.00;;;29.43;;
18748;SDS011;9503;53.560;10.246;2022-09-09T02:14:01;71.13;;;28.87;;
18748;SDS011;9503;53.560;10.246;2022-09-09T02:16:32;79.10;;;28.27;;
18748;SDS011;9503;53.560;10.246;2022-09-09T02:19:06;67.73;;;28.83;;
18748;SDS011;9503;53.560;10.246;2022-09-09T02:21:38;51.83;;;25.07;;
18748;SDS011;9503;53.560;10.246;2022-09-09T02:24:07;70.47;;;28.50;;
18748;SDS011;9503;53.560;10.246;2022-09-09T02:26:36;81.40;;;28.47;;
18748;SDS011;9503;53.560;10.246;2022-09-09T02:29:08;62.97;;;27.50;;
18748;SDS011;9503;53.560;10.246;2022-09-09T02:31:38;55.13;;;26.17;;
18748;SDS011;9503;53.560;10.246;2022-09-09T02:34:07;68.83;;;25.93;;
18748;SDS011;9503;53.560;10.246;2022-09-09T02:36:35;81.60;;;27.87;;
18748;SDS011;9503;53.560;10.246;2022-09-09T02:39:04;93.77;;;28.60;;
18748;SDS011;9503;53.560;10.246;2022-09-09T02:41:34;56.50;;;25.80;;
18748;SDS011;9503;53.560;10.246;2022-09-09T02:44:05;79.30;;;26.20;;
18748;SDS011;9503;53.560;10.246;2022-09-09T02:46:36;152.60;;;29.63;;
18748;SDS011;9503;53.560;10.246;2022-09-09T02:49:18;70.87;;;26.23;;
18748;SDS011;9503;53.560;10.246;2022-09-09T02:51:51;105.23;;;28.80;;
18748;SDS011;9503;53.560;10.246;2022-09-09T02:54:22;68.53;;;26.00;;
18748;SDS011;9503;53.560;10.246;2022-09-09T02:56:55;57.00;;;24.77;;
18748;SDS011;9503;53.560;10.246;2022-09-09T02:59:30;63.23;;;24.33;;
18748;SDS011;9503;53.560;10.246;2022-09-09T03:01:57;73.73;;;26.13;;
18748;SDS011;9503;53.560;10.246;2022-09-09T03:04:24;83.50;;;26.73;;
18748;SDS011;9503;53.560;10.246;2022-09-09T03:06:50;73.63;;;25.30;;
18748;SDS011;9503;53.560;10.246;2022-09-09T03:09:17;64.03;;;24.57;;
18748;SDS011;9503;53.560;10.246;2022-09-09T03:11:43;55.20;;;23.30;;
18748;SDS011;9503;53.560;10.246;2022-09-09T03:14:10;85.57;;;26.37;;
18748;SDS011;9503;53.560;10.246;2022-09-09T03:16:38;75.37;;;23.73;;
18748;SDS011;9503;53.560;10.246;2022-09-09T03:19:04;56.53;;;23.57;;
18748;SDS011;9503;53.560;10.246;2022-09-09T03:21:31;112.97;;;28.20;;
18748;SDS011;9503;53.560;10.246;2022-09-09T03:23:58;69.07;;;25.73;;
18748;SDS011;9503;53.560;10.246;2022-09-09T03:26:24;76.40;;;24.70;;
18748;SDS011;9503;53.560;10.246;2022-09-09T03:28:51;76.73;;;26.93;;
18748;SDS011;9503;53.560;10.246;2022-09-09T03:31:18;66.03;;;25.03;;
18748;SDS011;9503;53.560;10.246;2022-09-09T03:33:46;78.87;;;26.07;;
18748;SDS011;9503;53.560;10.246;2022-09-09T03:36:13;69.60;;;24.93;;
18748;SDS011;9503;53.560;10.246;2022-09-09T03:38:39;60.20;;;24.50;;
18748;SDS011;9503;53.560;10.246;2022-09-09T03:41:06;55.27;;;24.93;;
18748;SDS011;9503;53.560;10.246;2022-09-09T03:43:33;72.20;;;26.40;;
18748;SDS011;9503;53.560;10.246;2022-09-09T03:46:00;56.50;;;24.87;;
18748;SDS011;9503;53.560;10.246;2022-09-09T03:48:27;48.73;;;23.63;;
18748;SDS011;9503;53.560;10.246;2022-09-09T03:50:55;81.60;;;26.83;;
18748;SDS011;9503;53.560;10.246;2022-09-09T03:53:23;68.00;;;24.97;;
18748;SDS011;9503;53.560;10.246;2022-09-09T03:55:51;89.07;;;27.67;;
18748;SDS011;9503;53.560;10.246;2022-09-09T03:58:22;90.33;;;27.23;;
18748;SDS011;9503;53.560;10.246;2022-09-09T04:00:55;96.70;;;28.30;;
18748;SDS011;9503;53.560;10.246;2022-09-09T04:03:22;74.70;;;25.30;;
18748;SDS011;9503;53.560;10.246;2022-09-09T04:05:50;115.37;;;26.43;;
18748;SDS011;9503;53.560;10.246;2022-09-09T04:08:19;81.13;;;25.33;;
18748;SDS011;9503;53.560;10.246;2022-09-09T04:10:47;88.67;;;26.30;;
18748;SDS011;9503;53.560;10.246;2022-09-09T04:13:17;81.27;;;26.13;;
18748;SDS011;9503;53.560;10.246;2022-09-09T04:15:50;75.13;;;27.83;;
18748;SDS011;9503;53.560;10.246;2022-09-09T04:18:17;67.73;;;25.70;;
18748;SDS011;9503;53.560;10.246;2022-09-09T04:20:46;58.97;;;24.07;;
18748;SDS011;9503;53.560;10.246;2022-09-09T04:23:14;53.17;;;25.77;;
18748;SDS011;9503;53.560;10.246;2022-09-09T04:25:45;66.73;;;26.93;;
18748;SDS011;9503;53.560;10.246;2022-09-09T04:28:13;53.10;;;25.00;;
18748;SDS011;9503;53.560;10.246;2022-09-09T04:30:41;56.90;;;24.47;;
18748;SDS011;9503;53.560;10.246;2022-09-09T04:33:08;46.33;;;23.33;;
18748;SDS011;9503;53.560;10.246;2022-09-09T04:35:36;54.37;;;24.00;;
18748;SDS011;9503;53.560;10.246;2022-09-09T04:38:04;41.00;;;21.50;;
18748;SDS011;9503;53.560;10.246;2022-09-09T04:40:32;45.13;;;21.77;;
18748;SDS011;9503;53.560;10.246;2022-09-09T04:43:09;52.13;;;23.03;;
18748;SDS011;9503;53.560;10.246;2022-09-09T04:45:37;43.53;;;21.83;;
18748;SDS011;9503;53.560;10.246;2022-09-09T04:48:06;41.93;;;20.83;;
18748;SDS011;9503;53.560;10.246;2022-09-09T04:50:35;62.03;;;23.13;;
18748;SDS011;9503;53.560;10.246;2022-09-09T04:53:05;43.20;;;20.63;;
18748;SDS011;9503;53.560;10.246;2022-09-09T04:55:33;50.27;;;22.70;;
18748;SDS011;9503;53.560;10.246;2022-09-09T04:58:02;44.20;;;21.10;;
18748;SDS011;9503;53.560;10.246;2022-09-09T05:00:31;51.50;;;22.00;;
18748;SDS011;9503;53.560;10.246;2022-09-09T05:03:02;45.17;;;20.53;;
18748;SDS011;9503;53.560;10.246;2022-09-09T05:05:31;45.53;;;20.00;;
18748;SDS011;9503;53.560;10.246;2022-09-09T05:08:00;33.17;;;18.17;;
18748;SDS011;9503;53.560;10.246;2022-09-09T05:10:28;44.83;;;19.37;;
18748;SDS011;9503;53.560;10.246;2022-09-09T05:12:55;33.53;;;18.67;;
18748;SDS011;9503;53.560;10.246;2022-09-09T05:15:22;49.43;;;20.60;;
18748;SDS011;9503;53.560;10.246;2022-09-09T05:17:52;40.80;;;18.47;;
18748;SDS011;9503;53.560;10.246;2022-09-09T05:20:23;32.17;;;17.43;;
18748;SDS011;9503;53.560;10.246;2022-09-09T05:22:52;28.67;;;16.17;;
18748;SDS011;9503;53.560;10.246;2022-09-09T05:25:19;36.10;;;17.47;;
18748;SDS011;9503;53.560;10.246;2022-09-09T05:27:47;34.37;;;16.30;;
18748;SDS011;9503;53.560;10.246;2022-09-09T05:30:14;31.00;;;15.43;;
18748;SDS011;9503;53.560;10.246;2022-09-09T05:32:41;26.73;;;15.43;;
18748;SDS011;9503;53.560;10.246;2022-09-09T05:35:09;33.23;;;15.80;;
18748;SDS011;9503;53.560;10.246;2022-09-09T05:37:36;27.23;;;15.87;;
18748;SDS011;9503;53.560;10.246;2022-09-09T05:40:03;29.33;;;15.57;;
18748;SDS011;9503;53.560;10.246;2022-09-09T05:42:30;27.83;;;16.60;;
18748;SDS011;9503;53.560;10.246;2022-09-09T05:44:57;30.50;;;15.60;;
18748;SDS011;9503;53.560;10.246;2022-09-09T05:47:24;36.30;;;16.20;;
18748;SDS011;9503;53.560;10.246;2022-09-09T05:49:52;36.23;;;15.37;;
18748;SDS011;9503;53.560;10.246;2022-09-09T05:52:20;25.63;;;14.33;;
18748;SDS011;9503;53.560;10.246;2022-09-09T05:54:47;23.63;;;13.77;;
18748;SDS011;9503;53.560;10.246;2022-09-09T05:57:14;24.57;;;14.30;;
18748;SDS011;9503;53.560;10.246;2022-09-09T05:59:40;28.47;;;14.63;;
18748;SDS011;9503;53.560;10.246;2022-09-09T06:02:07;27.17;;;14.03;;
18748;SDS011;9503;53.560;10.246;2022-09-09T06:04:34;21.57;;;13.37;;
18748;SDS011;9503;53.560;10.246;2022-09-09T06:07:01;28.13;;;13.43;;
18748;SDS011;9503;53.560;10.246;2022-09-09T06:09:29;23.20;;;13.40;;
18748;SDS011;9503;53.560;10.246;2022-09-09T06:11:55;21.80;;;13.53;;
18748;SDS011;9503;53.560;10.246;2022-09-09T06:14:22;19.53;;;12.57;;
18748;SDS011;9503;53.560;10.246;2022-09-09T06:16:50;19.83;;;13.00;;
18748;SDS011;9503;53.560;10.246;2022-09-09T06:19:17;21.67;;;13.00;;
18748;SDS011;9503;53.560;10.246;2022-09-09T06:21:45;20.63;;;12.50;;
18748;SDS011;9503;53.560;10.246;2022-09-09T06:24:12;23.20;;;12.13;;
18748;SDS011;9503;53.560;10.246;2022-09-09T06:26:43;18.23;;;10.95;;
18748;SDS011;9503;53.560;10.246;2022-09-09T06:29:10;19.30;;;11.23;;
18748;SDS011;9503;53.560;10.246;2022-09-09T06:31:37;18.52;;;10.40;;
18748;SDS011;9503;53.560;10.246;2022-09-09T06:34:04;14.18;;;10.02;;
18748;SDS011;9503;53.560;10.246;2022-09-09T06:36:33;12.00;;;8.90;;
18748;SDS011;9503;53.560;10.246;2022-09-09T06:39:02;17.63;;;9.77;;
18748;SDS011;9503;53.560;10.246;2022-09-09T06:41:29;15.55;;;8.93;;
18748;SDS011;9503;53.560;10.246;2022-09-09T06:43:59;12.57;;;9.00;;
18748;SDS011;9503;53.560;10.246;2022-09-09T06:46:26;15.13;;;8.73;;
18748;SDS011;9503;53.560;10.246;2022-09-09T06:48:55;11.40;;;8.23;;
18748;SDS011;9503;53.560;10.246;2022-09-09T06:51:25;12.93;;;9.27;;
18748;SDS011;9503;53.560;10.246;2022-09-09T06:53:53;11.38;;;8.65;;
18748;SDS011;9503;53.560;10.246;2022-09-09T06:56:22;10.85;;;7.65;;
18748;SDS011;9503;53.560;10.246;2022-09-09T06:58:51;11.85;;;7.75;;
18748;SDS011;9503;53.560;10.246;2022-09-09T07:01:21;11.13;;;7.28;;
18748;SDS011;9503;53.560;10.246;2022-09-09T07:03:49;10.05;;;7.10;;
18748;SDS011;9503;53.560;10.246;2022-09-09T07:06:18;9.82;;;6.57;;
18748;SDS011;9503;53.560;10.246;2022-09-09T07:08:50;10.95;;;6.60;;
18748;SDS011;9503;53.560;10.246;2022-09-09T07:11:18;12.13;;;7.07;;
18748;SDS011;9503;53.560;10.246;2022-09-09T07:13:45;7.55;;;6.25;;
18748;SDS011;9503;53.560;10.246;2022-09-09T07:16:13;10.73;;;6.60;;
18748;SDS011;9503;53.560;10.246;2022-09-09T07:18:44;10.60;;;6.63;;
18748;SDS011;9503;53.560;10.246;2022-09-09T07:21:11;15.98;;;8.27;;
18748;SDS011;9503;53.560;10.246;2022-09-09T07:23:39;10.32;;;6.97;;
18748;SDS011;9503;53.560;10.246;2022-09-09T07:26:07;10.70;;;6.78;;
18748;SDS011;9503;53.560;10.246;2022-09-09T07:28:35;10.43;;;6.93;;
18748;SDS011;9503;53.560;10.246;2022-09-09T07:31:02;11.27;;;7.47;;
18748;SDS011;9503;53.560;10.246;2022-09-09T07:33:29;11.10;;;6.95;;
18748;SDS011;9503;53.560;10.246;2022-09-09T07:36:03;9.52;;;6.40;;
18748;SDS011;9503;53.560;10.246;2022-09-09T07:38:32;9.48;;;5.82;;
18748;SDS011;9503;53.560;10.246;2022-09-09T07:41:03;9.93;;;6.03;;
18748;SDS011;9503;53.560;10.246;2022-09-09T07:43:32;9.90;;;5.32;;
18748;SDS011;9503;53.560;10.246;2022-09-09T07:45:59;6.68;;;4.55;;
18748;SDS011;9503;53.560;10.246;2022-09-09T07:48:26;11.13;;;4.97;;
18748;SDS011;9503;53.560;10.246;2022-09-09T07:51:02;6.63;;;4.72;;
18748;SDS011;9503;53.560;10.246;2022-09-09T07:53:32;6.97;;;5.47;;
18748;SDS011;9503;53.560;10.246;2022-09-09T07:56:02;9.13;;;5.22;;
18748;SDS011;9503;53.560;10.246;2022-09-09T07:58:29;7.75;;;5.07;;
18748;SDS011;9503;53.560;10.246;2022-09-09T08:00:55;9.15;;;4.10;;
18748;SDS011;9503;53.560;10.246;2022-09-09T08:03:22;6.32;;;4.40;;
18748;SDS011;9503;53.560;10.246;2022-09-09T08:05:49;6.20;;;4.30;;
18748;SDS011;9503;53.560;10.246;2022-09-09T08:08:17;8.65;;;4.50;;
18748;SDS011;9503;53.560;10.246;2022-09-09T08:10:44;5.78;;;3.92;;
18748;SDS011;9503;53.560;10.246;2022-09-09T08:13:11;8.82;;;4.50;;
18748;SDS011;9503;53.560;10.246;2022-09-09T08:15:38;8.02;;;4.50;;
18748;SDS011;9503;53.560;10.246;2022-09-09T08:18:04;4.78;;;4.03;;
18748;SDS011;9503;53.560;10.246;2022-09-09T08:20:31;6.90;;;4.53;;
18748;SDS011;9503;53.560;10.246;2022-09-09T08:22:57;5.97;;;4.43;;
18748;SDS011;9503;53.560;10.246;2022-09-09T08:25:25;4.28;;;3.72;;
18748;SDS011;9503;53.560;10.246;2022-09-09T08:27:52;4.95;;;3.90;;
18748;SDS011;9503;53.560;10.246;2022-09-09T08:30:19;5.80;;;3.75;;
18748;SDS011;9503;53.560;10.246;2022-09-09T08:32:45;6.40;;;4.50;;
18748;SDS011;9503;53.560;10.246;2022-09-09T08:35:12;7.20;;;4.63;;
18748;SDS011;9503;53.560;10.246;2022-09-09T08:37:38;6.35;;;4.55;;
18748;SDS011;9503;53.560;10.246;2022-09-09T08:40:06;6.10;;;3.90;;
18748;SDS011;9503;53.560;10.246;2022-09-09T08:42:44;5.70;;;3.70;;
18748;SDS011;9503;53.560;10.246;2022-09-09T08:45:23;12.20;;;3.97;;
18748;SDS011;9503;53.560;10.246;2022-09-09T08:47:58;6.80;;;4.13;;
18748;SDS011;9503;53.560;10.246;2022-09-09T08:50:35;7.00;;;3.80;;
18748;SDS011;9503;53.560;10.246;2022-09-09T08:53:05;7.45;;;3.70;;
18748;SDS011;9503;53.560;10.246;2022-09-09T08:55:39;4.57;;;3.40;;
18748;SDS011;9503;53.560;10.246;2022-09-09T08:58:11;4.80;;;3.47;;
18748;SDS011;9503;53.560;10.246;2022-09-09T09:00:42;4.63;;;3.58;;
18748;SDS011;9503;53.560;10.246;2022-09-09T09:03:22;6.40;;;3.65;;
18748;SDS011;9503;53.560;10.246;2022-09-09T09:05:56;3.92;;;2.83;;
18748;SDS011;9503;53.560;10.246;2022-09-09T09:08:32;3.92;;;3.00;;
18748;SDS011;9503;53.560;10.246;2022-09-09T09:11:06;5.78;;;3.70;;
18748;SDS011;9503;53.560;10.246;2022-09-09T09:13:34;6.63;;;2.97;;
18748;SDS011;9503;53.560;10.246;2022-09-09T09:16:11;4.15;;;2.72;;
18748;SDS011;9503;53.560;10.246;2022-09-09T09:18:43;5.78;;;3.15;;
18748;SDS011;9503;53.560;10.246;2022-09-09T09:21:12;5.13;;;3.40;;
18748;SDS011;9503;53.560;10.246;2022-09-09T09:23:45;5.07;;;2.40;;
18748;SDS011;9503;53.560;10.246;2022-09-09T09:26:20;6.30;;;2.55;;
18748;SDS011;9503;53.560;10.246;2022-09-09T09:28:52;4.55;;;2.97;;
18748;SDS011;9503;53.560;10.246;2022-09-09T09:31:22;3.35;;;2.38;;
18748;SDS011;9503;53.560;10.246;2022-09-09T09:33:52;8.65;;;2.95;;
18748;SDS011;9503;53.560;10.246;2022-09-09T09:36:19;2.70;;;1.95;;
18748;SDS011;9503;53.560;10.246;2022-09-09T09:38:53;5.20;;;2.05;;
18748;SDS011;9503;53.560;10.246;2022-09-09T09:41:31;4.45;;;2.15;;
18748;SDS011;9503;53.560;10.246;2022-09-09T09:44:02;6.20;;;2.20;;
18748;SDS011;9503;53.560;10.246;2022-09-09T09:46:29;5.10;;;2.13;;
18748;SDS011;9503;53.560;10.246;2022-09-09T09:48:56;2.97;;;1.83;;
18748;SDS011;9503;53.560;10.246;2022-09-09T09:51:24;4.53;;;2.33;;
18748;SDS011;9503;53.560;10.246;2022-09-09T09:53:52;3.13;;;1.70;;
18748;SDS011;9503;53.560;10.246;2022-09-09T09:56:26;3.40;;;1.95;;
18748;SDS011;9503;53.560;10.246;2022-09-09T09:58:53;2.30;;;2.00;;
18748;SDS011;9503;53.560;10.246;2022-09-09T10:01:23;3.22;;;1.90;;
18748;SDS011;9503;53.560;10.246;2022-09-09T10:03:52;2.85;;;1.88;;
18748;SDS011;9503;53.560;10.246;2022-09-09T10:06:28;4.18;;;1.75;;
18748;SDS011;9503;53.560;10.246;2022-09-09T10:08:56;3.08;;;1.65;;
18748;SDS011;9503;53.560;10.246;2022-09-09T10:11:25;1.58;;;1.30;;
18748;SDS011;9503;53.560;10.246;2022-09-09T10:14:10;3.22;;;1.70;;
18748;SDS011;9503;53.560;10.246;2022-09-09T10:16:49;3.75;;;1.70;;
18748;SDS011;9503;53.560;10.246;2022-09-09T10:19:28;2.50;;;1.60;;
18748;SDS011;9503;53.560;10.246;2022-09-09T10:22:02;1.98;;;1.52;;
18748;SDS011;9503;53.560;10.246;2022-09-09T10:24:52;4.35;;;2.10;;
18748;SDS011;9503;53.560;10.246;2022-09-09T10:27:32;3.28;;;1.60;;
18748;SDS011;9503;53.560;10.246;2022-09-09T10:30:12;2.83;;;1.92;;
18748;SDS011;9503;53.560;10.246;2022-09-09T10:32:49;3.58;;;1.90;;
18748;SDS011;9503;53.560;10.246;2022-09-09T10:35:30;1.83;;;1.60;;
18748;SDS011;9503;53.560;10.246;2022-09-09T10:38:12;3.10;;;1.80;;
18748;SDS011;9503;53.560;10.246;2022-09-09T10:40:50;2.75;;;1.80;;
18748;SDS011;9503;53.560;10.246;2022-09-09T10:43:33;2.38;;;1.95;;
18748;SDS011;9503;53.560;10.246;2022-09-09T10:46:13;3.10;;;1.77;;
18748;SDS011;9503;53.560;10.246;2022-09-09T10:48:57;2.75;;;1.58;;
18748;SDS011;9503;53.560;10.246;2022-09-09T10:51:36;4.65;;;1.88;;
18748;SDS011;9503;53.560;10.246;2022-09-09T10:54:14;3.60;;;1.80;;
18748;SDS011;9503;53.560;10.246;2022-09-09T10:56:52;4.32;;;1.75;;
18748;SDS011;9503;53.560;10.246;2022-09-09T10:59:22;2.22;;;1.63;;
18748;SDS011;9503;53.560;10.246;2022-09-09T11:01:53;2.58;;;1.70;;
18748;SDS011;9503;53.560;10.246;2022-09-09T11:04:23;2.40;;;1.30;;
18748;SDS011;9503;53.560;10.246;2022-09-09T11:06:57;4.63;;;1.98;;
18748;SDS011;9503;53.560;10.246;2022-09-09T11:09:30;2.70;;;1.63;;
18748;SDS011;9503;53.560;10.246;2022-09-09T11:12:02;4.22;;;1.70;;
18748;SDS011;9503;53.560;10.246;2022-09-09T11:14:29;3.05;;;1.48;;
18748;SDS011;9503;53.560;10.246;2022-09-09T11:16:59;3.08;;;1.60;;
18748;SDS011;9503;53.560;10.246;2022-09-09T11:19:32;1.52;;;1.38;;
18748;SDS011;9503;53.560;10.246;2022-09-09T11:22:01;1.45;;;1.33;;
18748;SDS011;9503;53.560;10.246;2022-09-09T11:24:33;1.73;;;1.58;;
18748;SDS011;9503;53.560;10.246;2022-09-09T11:27:07;3.35;;;1.75;;
18748;SDS011;9503;53.560;10.246;2022-09-09T11:29:47;2.15;;;1.52;;
18748;SDS011;9503;53.560;10.246;2022-09-09T11:32:33;3.88;;;1.70;;
18748;SDS011;9503;53.560;10.246;2022-09-09T11:35:24;2.53;;;1.50;;
18748;SDS011;9503;53.560;10.246;2022-09-09T11:38:06;2.58;;;1.88;;
18748;SDS011;9503;53.560;10.246;2022-09-09T11:40:43;3.65;;;1.88;;
18748;SDS011;9503;53.560;10.246;2022-09-09T11:43:11;1.85;;;1.60;;
18748;SDS011;9503;53.560;10.246;2022-09-09T11:45:40;3.28;;;1.60;;
18748;SDS011;9503;53.560;10.246;2022-09-09T11:48:21;2.78;;;1.60;;
18748;SDS011;9503;53.560;10.246;2022-09-09T11:50:58;2.55;;;1.70;;
18748;SDS011;9503;53.560;10.246;2022-09-09T11:53:28;2.08;;;1.45;;
18748;SDS011;9503;53.560;10.246;2022-09-09T11:56:04;2.33;;;1.65;;
18748;SDS011;9503;53.560;10.246;2022-09-09T11:58:36;2.58;;;1.75;;
18748;SDS011;9503;53.560;10.246;2022-09-09T12:01:15;2.85;;;1.80;;
18748;SDS011;9503;53.560;10.246;2022-09-09T12:03:54;2.50;;;1.80;;
18748;SDS011;9503;53.560;10.246;2022-09-09T12:06:32;2.05;;;1.60;;
18748;SDS011;9503;53.560;10.246;2022-09-09T12:09:08;3.65;;;1.40;;
18748;SDS011;9503;53.560;10.246;2022-09-09T12:11:42;4.18;;;1.98;;
18748;SDS011;9503;53.560;10.246;2022-09-09T12:14:18;2.38;;;1.77;;
18748;SDS011;9503;53.560;10.246;2022-09-09T12:16:46;6.88;;;2.20;;
18748;SDS011;9503;53.560;10.246;2022-09-09T12:19:13;10.43;;;2.45;;
18748;SDS011;9503;53.560;10.246;2022-09-09T12:21:46;5.35;;;2.40;;
18748;SDS011;9503;53.560;10.246;2022-09-09T12:24:19;3.45;;;2.65;;
18748;SDS011;9503;53.560;10.246;2022-09-09T12:26:54;5.35;;;2.97;;
18748;SDS011;9503;53.560;10.246;2022-09-09T12:29:28;6.55;;;3.08;;
18748;SDS011;9503;53.560;10.246;2022-09-09T12:32:04;5.88;;;2.97;;
18748;SDS011;9503;53.560;10.246;2022-09-09T12:34:35;3.40;;;2.90;;
18748;SDS011;9503;53.560;10.246;2022-09-09T12:37:09;4.90;;;3.30;;
18748;SDS011;9503;53.560;10.246;2022-09-09T12:39:45;6.82;;;4.07;;
18748;SDS011;9503;53.560;10.246;2022-09-09T12:42:16;5.72;;;3.45;;
18748;SDS011;9503;53.560;10.246;2022-09-09T12:44:50;4.03;;;3.53;;
18748;SDS011;9503;53.560;10.246;2022-09-09T12:47:21;6.35;;;3.63;;
18748;SDS011;9503;53.560;10.246;2022-09-09T12:49:51;5.90;;;3.53;;
18748;SDS011;9503;53.560;10.246;2022-09-09T12:52:21;4.75;;;3.67;;
18748;SDS011;9503;53.560;10.246;2022-09-09T12:54:51;5.43;;;3.55;;
18748;SDS011;9503;53.560;10.246;2022-09-09T12:57:19;7.32;;;3.75;;
18748;SDS011;9503;53.560;10.246;2022-09-09T12:59:49;7.82;;;3.15;;
18748;SDS011;9503;53.560;10.246;2022-09-09T13:02:17;5.28;;;3.20;;
18748;SDS011;9503;53.560;10.246;2022-09-09T13:04:45;5.55;;;2.70;;
18748;SDS011;9503;53.560;10.246;2022-09-09T13:07:12;6.47;;;3.15;;
18748;SDS011;9503;53.560;10.246;2022-09-09T13:09:42;3.45;;;2.75;;
18748;SDS011;9503;53.560;10.246;2022-09-09T13:12:11;3.00;;;2.47;;
18748;SDS011;9503;53.560;10.246;2022-09-09T13:14:42;5.72;;;2.35;;
18748;SDS011;9503;53.560;10.246;2022-09-09T13:17:15;4.10;;;2.58;;
18748;SDS011;9503;53.560;10.246;2022-09-09T13:19:45;4.45;;;2.53;;
18748;SDS011;9503;53.560;10.246;2022-09-09T13:22:12;3.08;;;2.22;;
18748;SDS011;9503;53.560;10.246;2022-09-09T13:24:40;4.65;;;3.17;;
18748;SDS011;9503;53.560;10.246;2022-09-09T13:27:22;4.18;;;2.58;;
18748;SDS011;9503;53.560;10.246;2022-09-09T13:29:52;3.17;;;2.40;;
18748;SDS011;9503;53.560;10.246;2022-09-09T13:32:21;4.60;;;2.38;;
18748;SDS011;9503;53.560;10.246;2022-09-09T13:34:52;3.80;;;2.38;;
18748;SDS011;9503;53.560;10.246;2022-09-09T13:37:22;6.72;;;2.45;;
18748;SDS011;9503;53.560;10.246;2022-09-09T13:39:57;3.42;;;2.10;;
18748;SDS011;9503;53.560;10.246;2022-09-09T13:42:24;3.85;;;2.22;;
18748;SDS011;9503;53.560;10.246;2022-09-09T13:44:52;5.07;;;2.30;;
18748;SDS011;9503;53.560;10.246;2022-09-09T13:47:21;2.38;;;1.90;;
18748;SDS011;9503;53.560;10.246;2022-09-09T13:49:53;2.30;;;1.88;;
18748;SDS011;9503;53.560;10.246;2022-09-09T13:52:20;2.67;;;1.90;;
18748;SDS011;9503;53.560;10.246;2022-09-09T13:54:47;6.22;;;2.20;;
18748;SDS011;9503;53.560;10.246;2022-09-09T13:57:17;2.38;;;2.03;;
18748;SDS011;9503;53.560;10.246;2022-09-09T13:59:45;2.90;;;2.00;;
18748;SDS011;9503;53.560;10.246;2022-09-09T14:02:12;3.05;;;1.95;;
18748;SDS011;9503;53.560;10.246;2022-09-09T14:04:38;3.00;;;2.00;;
18748;SDS011;9503;53.560;10.246;2022-09-09T14:07:07;3.08;;;1.98;;
18748;SDS011;9503;53.560;10.246;2022-09-09T14:09:37;5.15;;;2.33;;
18748;SDS011;9503;53.560;10.246;2022-09-09T14:12:04;5.40;;;2.53;;
18748;SDS011;9503;53.560;10.246;2022-09-09T14:14:32;9.02;;;3.88;;
18748;SDS011;9503;53.560;10.246;2022-09-09T14:16:58;7.78;;;4.68;;
18748;SDS011;9503;53.560;10.246;2022-09-09T14:19:25;5.95;;;4.80;;
18748;SDS011;9503;53.560;10.246;2022-09-09T14:21:51;7.65;;;4.10;;
18748;SDS011;9503;53.560;10.246;2022-09-09T14:24:18;7.07;;;3.63;;
18748;SDS011;9503;53.560;10.246;2022-09-09T14:26:44;5.63;;;3.25;;
18748;SDS011;9503;53.560;10.246;2022-09-09T14:29:11;4.85;;;3.17;;
18748;SDS011;9503;53.560;10.246;2022-09-09T14:31:39;8.90;;;3.65;;
18748;SDS011;9503;53.560;10.246;2022-09-09T14:34:05;6.57;;;3.22;;
18748;SDS011;9503;53.560;10.246;2022-09-09T14:36:32;7.05;;;3.30;;
18748;SDS011;9503;53.560;10.246;2022-09-09T14:38:58;10.52;;;3.67;;
18748;SDS011;9503;53.560;10.246;2022-09-09T14:41:25;5.22;;;3.03;;
18748;SDS011;9503;53.560;10.246;2022-09-09T14:43:52;4.57;;;3.15;;
18748;SDS011;9503;53.560;10.246;2022-09-09T14:46:21;7.65;;;3.50;;
18748;SDS011;9503;53.560;10.246;2022-09-09T14:48:49;10.80;;;3.95;;
18748;SDS011;9503;53.560;10.246;2022-09-09T14:51:16;7.65;;;3.90;;
18748;SDS011;9503;53.560;10.246;2022-09-09T14:53:45;9.10;;;4.18;;